Time;durP1;ratioP1;P1;durP2;ratioP2;P2;SDS_P1;SDS_P2;PMS_P1;PMS_P2;Temp;Humidity;BMP_temperature;BMP_pressure;BME280_temperature;BME280_humidity;BME280_pressure;Samples;Min_cycle;Max_cycle;Signal;HPM_P1;HPM_P2
2022/06/15 00:01:21;;;;;;;3.95;1.40;;;15.20;99.90;;;;;;4993233;28;20026;-55
2022/06/15 00:03:48;;;;;;;2.40;1.40;;;15.20;99.90;;;;;;4992849;28;20018;-53
2022/06/15 00:06:18;;;;;;;3.05;1.52;;;15.30;99.90;;;;;;4994271;28;20093;-52
2022/06/15 00:08:46;;;;;;;3.53;1.38;;;15.20;99.90;;;;;;4994495;28;20034;-51
2022/06/15 00:11:15;;;;;;;3.95;1.48;;;15.20;99.90;;;;;;4993183;28;20030;-51
2022/06/15 00:13:42;;;;;;;1.75;1.35;;;15.10;99.90;;;;;;4992748;28;20026;-50
2022/06/15 00:16:08;;;;;;;3.40;2.00;;;15.10;99.90;;;;;;4992775;28;20029;-55
2022/06/15 00:18:35;;;;;;;6.57;2.05;;;15.10;99.90;;;;;;4994014;28;20030;-51
2022/06/15 00:21:01;;;;;;;2.40;1.70;;;15.10;99.90;;;;;;4992704;28;20037;-56
2022/06/15 00:23:29;;;;;;;4.10;1.85;;;14.90;99.90;;;;;;4992593;28;20023;-57
2022/06/15 00:25:54;;;;;;;5.25;1.83;;;14.80;99.90;;;;;;4993952;28;20022;-52
2022/06/15 00:28:21;;;;;;;2.67;1.40;;;14.60;99.90;;;;;;4992732;28;20029;-53
2022/06/15 00:30:50;;;;;;;2.90;1.30;;;14.70;99.90;;;;;;4992506;28;20054;-55
2022/06/15 00:33:19;;;;;;;3.55;1.55;;;14.70;99.90;;;;;;4993692;28;20026;-53
2022/06/15 00:35:51;;;;;;;5.57;1.30;;;14.60;99.90;;;;;;4992586;28;20022;-53
2022/06/15 00:38:17;;;;;;;3.40;1.77;;;14.70;99.90;;;;;;4993779;28;20026;-55
2022/06/15 00:40:42;;;;;;;2.13;1.40;;;14.60;99.90;;;;;;4993585;28;20022;-55
2022/06/15 00:43:09;;;;;;;2.20;1.50;;;14.60;99.90;;;;;;4993052;28;20026;-50
2022/06/15 00:45:34;;;;;;;7.53;1.77;;;14.50;99.90;;;;;;4993783;28;20050;-52
2022/06/15 00:48:01;;;;;;;5.80;1.80;;;14.50;99.90;;;;;;4992444;28;20030;-51
2022/06/15 00:50:26;;;;;;;7.13;2.10;;;14.40;99.90;;;;;;4993020;28;20041;-50
2022/06/15 00:53:01;;;;;;;2.42;1.88;;;14.20;99.90;;;;;;4992250;28;20485;-55
2022/06/15 00:55:31;;;;;;;4.32;2.10;;;14.20;99.90;;;;;;4993688;28;20027;-51
2022/06/15 00:58:01;;;;;;;6.78;1.50;;;14.10;99.90;;;;;;4992372;28;20038;-57
2022/06/15 01:01:06;;;;;;;3.35;1.70;;;14.10;99.90;;;;;;4992218;28;20038;-52
2022/06/15 01:03:33;;;;;;;2.05;1.73;;;14.00;99.90;;;;;;4994037;28;20038;-51
2022/06/15 01:06:04;;;;;;;2.40;1.65;;;13.90;99.90;;;;;;4992931;28;20034;-51
2022/06/15 01:08:53;;;;;;;4.72;2.17;;;13.90;99.90;;;;;;4991995;28;20512;-52
2022/06/15 01:11:38;;;;;;;3.45;1.42;;;13.90;99.90;;;;;;4993015;28;20034;-54
2022/06/15 01:14:23;;;;;;;3.22;1.88;;;13.80;99.90;;;;;;4992463;28;20022;-54
2022/06/15 01:17:25;;;;;;;6.00;2.42;;;13.70;99.90;;;;;;4993497;28;20022;-53
2022/06/15 01:20:31;;;;;;;2.47;1.80;;;13.60;99.90;;;;;;4993382;28;20022;-52
2022/06/15 01:23:16;;;;;;;6.20;1.98;;;13.50;99.90;;;;;;4991945;28;20023;-51
2022/06/15 01:26:12;;;;;;;3.05;1.20;;;13.40;99.90;;;;;;4993873;28;20022;-53
2022/06/15 01:28:55;;;;;;;3.30;1.60;;;13.40;99.90;;;;;;4992165;28;20114;-55
2022/06/15 01:31:33;;;;;;;2.35;1.40;;;13.40;99.90;;;;;;4991864;28;20027;-50
2022/06/15 01:34:11;;;;;;;4.00;1.50;;;13.50;99.90;;;;;;4993213;28;20386;-52
2022/06/15 01:36:52;;;;;;;2.35;1.58;;;13.50;99.90;;;;;;4993411;28;20026;-52
2022/06/15 01:39:21;;;;;;;1.65;1.55;;;13.60;99.90;;;;;;4993175;28;20097;-54
2022/06/15 01:42:30;;;;;;;5.15;1.95;;;13.70;99.90;;;;;;4993312;28;20045;-54
2022/06/15 01:45:03;;;;;;;3.97;1.60;;;13.60;99.90;;;;;;4990546;28;20061;-55
2022/06/15 01:47:32;;;;;;;3.67;1.25;;;13.50;99.90;;;;;;4991798;28;20029;-54
2022/06/15 01:50:01;;;;;;;2.40;1.70;;;13.60;99.90;;;;;;4993048;28;20018;-52
2022/06/15 01:52:32;;;;;;;4.43;1.60;;;13.50;99.90;;;;;;4991834;28;20098;-53
2022/06/15 01:55:05;;;;;;;4.82;2.00;;;13.40;99.90;;;;;;4993057;28;20033;-53
2022/06/15 01:57:33;;;;;;;8.13;2.15;;;13.20;99.90;;;;;;4992145;28;20035;-52
2022/06/15 02:00:10;;;;;;;5.18;1.70;;;13.30;99.90;;;;;;4991670;28;20032;-55
2022/06/15 02:03:07;;;;;;;3.72;1.70;;;13.30;99.90;;;;;;4991832;28;20449;-52
2022/06/15 02:05:51;;;;;;;3.83;1.58;;;13.50;99.90;;;;;;4991790;28;20018;-52
2022/06/15 02:08:31;;;;;;;5.90;1.55;;;13.60;99.90;;;;;;4991871;28;20030;-54
2022/06/15 02:11:06;;;;;;;3.45;1.98;;;13.60;99.90;;;;;;4992575;28;20018;-55
2022/06/15 02:13:40;;;;;;;2.85;1.92;;;13.70;99.90;;;;;;4996637;28;20026;-56
2022/06/15 02:16:12;;;;;;;3.97;1.48;;;13.60;99.90;;;;;;4996763;28;20018;-54
2022/06/15 02:18:39;;;;;;;2.80;2.00;;;13.60;99.90;;;;;;4995907;28;20125;-55
2022/06/15 02:21:10;;;;;;;3.55;1.90;;;13.60;99.90;;;;;;4995022;28;20026;-54
2022/06/15 02:23:38;;;;;;;4.97;1.60;;;13.50;99.90;;;;;;4995272;28;20033;-55
2022/06/15 02:26:04;;;;;;;6.28;1.70;;;13.50;99.90;;;;;;4995925;28;20266;-55
2022/06/15 02:28:34;;;;;;;4.10;1.85;;;13.40;99.90;;;;;;4994873;28;20392;-52
2022/06/15 02:31:00;;;;;;;3.15;1.80;;;13.30;99.90;;;;;;4996318;28;20077;-53
2022/06/15 02:33:32;;;;;;;7.00;1.67;;;13.30;99.90;;;;;;4994836;28;20034;-54
2022/06/15 02:35:58;;;;;;;;;;;13.30;99.90;;;;;;4996343;28;20022;-55
2022/06/15 02:38:25;;;;;;;5.13;1.90;;;13.30;99.90;;;;;;4994898;28;19906;-54
2022/06/15 02:40:51;;;;;;;4.57;2.22;;;13.20;99.90;;;;;;4996067;28;20026;-52
2022/06/15 02:43:22;;;;;;;4.32;2.03;;;13.10;99.90;;;;;;4995907;28;20022;-53
2022/06/15 02:45:49;;;;;;;4.47;1.88;;;12.90;99.90;;;;;;4995946;28;20088;-50
2022/06/15 02:48:16;;;;;;;5.47;2.00;;;12.90;99.90;;;;;;4994871;28;20109;-52
2022/06/15 02:51:07;;;;;;;2.75;1.88;;;12.70;99.90;;;;;;4995089;28;20023;-49
2022/06/15 02:53:34;;;;;;;2.13;1.70;;;12.70;99.90;;;;;;4994776;28;20030;-55
2022/06/15 02:56:02;;;;;;;6.40;1.85;;;12.80;99.90;;;;;;4994700;28;20062;-51
2022/06/15 02:58:34;;;;;;;4.68;1.77;;;12.70;99.90;;;;;;4995491;28;20025;-51
2022/06/15 03:01:01;;;;;;;5.78;1.80;;;12.70;99.90;;;;;;4994128;28;20026;-53
2022/06/15 03:03:28;;;;;;;4.10;1.92;;;12.80;99.90;;;;;;4995300;28;20033;-49
2022/06/15 03:05:53;;;;;;;4.50;1.80;;;12.90;99.90;;;;;;4995791;28;20026;-54
2022/06/15 03:08:21;;;;;;;3.80;1.90;;;12.90;99.90;;;;;;4995527;28;20034;-54
2022/06/15 03:10:48;;;;;;;6.10;1.67;;;12.80;99.90;;;;;;4994114;28;20030;-50
2022/06/15 03:13:14;;;;;;;2.92;1.70;;;12.90;99.90;;;;;;4995252;28;20030;-54
2022/06/15 03:15:40;;;;;;;2.42;1.58;;;12.90;99.90;;;;;;4993890;28;20018;-55
2022/06/15 03:18:06;;;;;;;4.97;1.95;;;13.00;99.90;;;;;;4995131;28;20037;-53
2022/06/15 03:20:31;;;;;;;4.63;2.72;;;13.20;99.90;;;;;;4993914;28;20117;-53
2022/06/15 03:22:57;;;;;;;2.75;1.98;;;13.10;99.90;;;;;;4993029;28;20111;-53
2022/06/15 03:25:23;;;;;;;10.52;2.55;;;13.10;99.90;;;;;;4995023;28;20088;-54
2022/06/15 03:27:49;;;;;;;4.13;1.63;;;13.10;99.90;;;;;;4993962;28;20105;-55
2022/06/15 03:30:16;;;;;;;6.20;2.03;;;13.00;99.90;;;;;;4994970;28;20026;-52
2022/06/15 03:32:42;;;;;;;3.60;2.20;;;13.20;99.90;;;;;;4994968;28;20037;-54
2022/06/15 03:35:10;;;;;;;5.80;2.10;;;13.20;99.90;;;;;;4993585;28;20121;-55
2022/06/15 03:37:37;;;;;;;2.72;1.73;;;13.30;99.90;;;;;;4994772;28;20022;-54
2022/06/15 03:40:08;;;;;;;5.20;2.35;;;13.40;99.90;;;;;;4994910;28;20027;-54
2022/06/15 03:42:33;;;;;;;3.92;2.08;;;13.40;99.90;;;;;;4993529;28;20030;-52
2022/06/15 03:44:59;;;;;;;9.00;2.45;;;13.20;99.90;;;;;;4993411;28;20488;-54
2022/06/15 03:47:25;;;;;;;3.30;1.92;;;13.00;99.90;;;;;;4993266;28;20022;-52
2022/06/15 03:49:53;;;;;;;5.75;2.38;;;12.90;99.90;;;;;;4993389;28;20033;-52
2022/06/15 03:52:23;;;;;;;11.80;1.90;;;12.80;99.90;;;;;;4994923;28;20037;-54
2022/06/15 03:54:49;;;;;;;6.00;2.40;;;12.90;99.90;;;;;;4994614;28;20477;-55
2022/06/15 03:57:17;;;;;;;8.48;2.40;;;12.80;99.90;;;;;;4994338;28;20033;-56
2022/06/15 03:59:44;;;;;;;2.83;1.98;;;12.80;99.90;;;;;;4993409;28;20045;-53
2022/06/15 04:02:10;;;;;;;5.43;2.45;;;13.10;99.90;;;;;;4994352;28;20060;-54
2022/06/15 04:04:36;;;;;;;9.27;2.53;;;13.30;99.90;;;;;;4993081;28;20034;-55
2022/06/15 04:07:02;;;;;;;3.78;2.70;;;13.40;99.90;;;;;;4992992;28;20029;-54
2022/06/15 04:09:28;;;;;;;4.63;2.17;;;13.50;99.90;;;;;;4994827;28;20030;-51
2022/06/15 04:11:59;;;;;;;4.20;2.20;;;13.70;99.90;;;;;;4992882;28;20031;-53
2022/06/15 04:14:25;;;;;;;4.97;2.05;;;14.00;99.90;;;;;;4992930;28;20026;-55
2022/06/15 04:16:54;;;;;;;3.28;2.13;;;14.30;99.90;;;;;;4994097;28;20065;-56
2022/06/15 04:19:21;;;;;;;4.75;1.77;;;14.70;99.90;;;;;;4994034;28;20029;-55
2022/06/15 04:21:47;;;;;;;5.78;2.03;;;15.10;99.90;;;;;;4993997;28;20022;-55
2022/06/15 04:24:14;;;;;;;6.00;2.13;;;15.40;99.90;;;;;;4993055;28;20028;-53
2022/06/15 04:26:40;;;;;;;7.07;2.13;;;15.80;99.90;;;;;;4994206;28;20014;-55
2022/06/15 04:29:06;;;;;;;2.45;1.83;;;16.20;99.90;;;;;;4993884;28;20443;-54
2022/06/15 04:31:32;;;;;;;6.85;2.40;;;16.60;99.90;;;;;;4994049;28;20023;-56
2022/06/15 04:33:58;;;;;;;5.82;2.30;;;16.80;99.90;;;;;;4993915;28;20030;-55
2022/06/15 04:36:26;;;;;;;3.67;2.40;;;17.20;99.90;;;;;;4993012;28;20493;-55
2022/06/15 04:38:52;;;;;;;4.47;2.30;;;17.50;99.90;;;;;;4994259;28;20034;-56
2022/06/15 04:41:18;;;;;;;4.60;2.13;;;17.70;99.90;;;;;;4992890;28;20031;-55
2022/06/15 04:43:43;;;;;;;5.45;2.40;;;18.00;99.90;;;;;;4994046;28;20021;-55
2022/06/15 04:46:09;;;;;;;4.82;2.38;;;18.30;99.90;;;;;;4994199;28;20069;-55
2022/06/15 04:48:35;;;;;;;6.38;2.08;;;18.60;99.90;;;;;;4992941;28;20046;-53
2022/06/15 04:51:15;;;;;;;8.27;2.58;;;18.90;99.90;;;;;;4994028;28;20022;-56
2022/06/15 04:53:41;;;;;;;4.63;1.88;;;19.30;99.90;;;;;;4993956;28;20026;-56
2022/06/15 04:56:07;;;;;;;8.70;2.85;;;19.60;99.90;;;;;;4994084;28;20073;-52
2022/06/15 04:58:34;;;;;;;5.93;1.88;;;20.00;99.90;;;;;;4993785;28;20022;-56
2022/06/15 05:01:00;;;;;;;5.13;2.47;;;20.30;99.90;;;;;;4992698;28;20366;-56
2022/06/15 05:03:25;;;;;;;6.63;2.20;;;20.50;99.90;;;;;;4993866;28;20030;-56
2022/06/15 05:05:58;;;;;;;5.65;1.92;;;20.80;99.90;;;;;;4993030;28;20052;-56
2022/06/15 05:08:24;;;;;;;3.38;2.13;;;21.20;99.90;;;;;;4993216;28;20053;-53
2022/06/15 05:10:50;;;;;;;4.88;2.15;;;21.40;99.90;;;;;;4994117;28;20023;-55
2022/06/15 05:13:16;;;;;;;5.25;2.00;;;21.80;99.90;;;;;;4993018;28;20018;-55
2022/06/15 05:15:42;;;;;;;3.20;2.03;;;22.10;99.90;;;;;;4993954;28;20548;-57
2022/06/15 05:18:08;;;;;;;5.40;2.58;;;22.40;99.90;;;;;;4992593;28;20023;-50
2022/06/15 05:20:38;;;;;;;2.42;2.08;;;22.80;99.90;;;;;;4992807;28;20034;-55
2022/06/15 05:23:04;;;;;;;6.43;2.20;;;23.00;99.90;;;;;;4992395;28;20026;-53
2022/06/15 05:25:30;;;;;;;10.60;2.70;;;23.30;99.90;;;;;;4992916;28;20027;-54
2022/06/15 05:27:56;;;;;;;7.25;2.58;;;23.50;99.90;;;;;;4992883;28;20595;-57
2022/06/15 05:30:22;;;;;;;3.15;2.15;;;23.60;99.90;;;;;;4994213;28;20362;-55
2022/06/15 05:32:47;;;;;;;3.10;2.40;;;23.90;99.90;;;;;;4993943;28;20022;-57
2022/06/15 05:35:13;;;;;;;5.78;2.25;;;24.30;99.90;;;;;;4992842;28;20470;-56
2022/06/15 05:37:39;;;;;;;6.07;2.30;;;24.60;99.90;;;;;;4994094;28;20030;-57
2022/06/15 05:40:06;;;;;;;5.75;2.13;;;24.90;99.90;;;;;;4993997;28;20025;-54
2022/06/15 05:42:32;;;;;;;5.47;2.25;;;25.30;99.90;;;;;;4992222;28;20117;-57
2022/06/15 05:45:00;;;;;;;7.55;2.20;;;25.60;98.90;;;;;;4992679;28;20044;-58
2022/06/15 05:47:26;;;;;;;5.57;2.03;;;25.90;98.50;;;;;;4994675;28;20097;-57
2022/06/15 05:49:51;;;;;;;7.20;2.35;;;26.20;97.10;;;;;;4997333;28;20416;-52
2022/06/15 05:52:18;;;;;;;4.95;1.92;;;26.40;95.70;;;;;;4996393;28;20046;-58
2022/06/15 05:54:44;;;;;;;4.45;1.83;;;26.70;95.60;;;;;;4997198;28;20080;-55
2022/06/15 05:57:16;;;;;;;3.58;2.33;;;27.10;94.80;;;;;;4996202;28;20027;-58
2022/06/15 05:59:42;;;;;;;7.82;2.15;;;27.60;93.40;;;;;;4996286;28;20142;-56
2022/06/15 06:02:10;;;;;;;6.57;2.40;;;27.90;91.90;;;;;;4996134;28;20053;-57
2022/06/15 06:04:36;;;;;;;7.47;2.58;;;27.90;90.40;;;;;;4995902;28;20025;-57
2022/06/15 06:07:01;;;;;;;3.92;2.10;;;27.90;90.00;;;;;;4997134;28;20018;-55
2022/06/15 06:09:28;;;;;;;7.88;2.85;;;27.90;90.20;;;;;;4996956;28;20034;-58
2022/06/15 06:11:54;;;;;;;9.00;2.65;;;28.20;89.30;;;;;;4996560;28;20065;-57
2022/06/15 06:14:20;;;;;;;3.67;1.75;;;28.30;89.70;;;;;;4995972;28;20022;-57
2022/06/15 06:16:46;;;;;;;11.23;4.07;;;28.90;87.50;;;;;;4997148;28;20026;-57
2022/06/15 06:19:11;;;;;;;8.00;3.40;;;29.30;84.30;;;;;;4995684;28;20023;-58
2022/06/15 06:21:37;;;;;;;5.95;3.10;;;29.20;82.10;;;;;;4996791;28;20041;-55
2022/06/15 06:24:03;;;;;;;5.20;2.22;;;28.70;83.80;;;;;;4997284;28;20385;-58
2022/06/15 06:26:33;;;;;;;8.77;2.00;;;29.00;83.30;;;;;;4996321;28;20045;-54
2022/06/15 06:29:00;;;;;;;6.63;2.80;;;29.50;81.00;;;;;;4995421;28;20022;-56
2022/06/15 06:31:27;;;;;;;4.55;1.90;;;29.60;81.00;;;;;;4996737;28;20030;-54
2022/06/15 06:33:53;;;;;;;8.20;1.98;;;30.40;81.90;;;;;;4996534;28;20393;-56
2022/06/15 06:36:23;;;;;;;4.10;2.42;;;30.90;79.50;;;;;;4996123;28;20113;-57
2022/06/15 06:38:49;;;;;;;7.93;2.38;;;31.00;75.70;;;;;;4995370;28;20034;-58
2022/06/15 06:41:23;;;;;;;4.63;1.92;;;31.40;73.80;;;;;;4996032;28;20035;-57
2022/06/15 06:43:49;;;;;;;4.70;1.80;;;31.90;76.10;;;;;;4996340;28;20022;-57
2022/06/15 06:46:15;;;;;;;6.40;2.35;;;32.60;74.40;;;;;;4996366;28;20032;-54
2022/06/15 06:48:41;;;;;;;10.80;2.50;;;33.30;72.20;;;;;;4995376;28;20113;-58
2022/06/15 06:51:06;;;;;;;3.10;1.80;;;33.40;67.90;;;;;;4994998;28;20171;-56
2022/06/15 06:53:32;;;;;;;5.47;1.88;;;32.80;68.30;;;;;;4995323;28;20033;-55
2022/06/15 06:56:03;;;;;;;7.97;2.63;;;33.30;68.10;;;;;;4995474;28;20026;-57
2022/06/15 06:58:29;;;;;;;7.32;2.30;;;33.50;66.20;;;;;;4994782;28;20022;-56
2022/06/15 07:00:55;;;;;;;5.32;2.22;;;33.60;66.00;;;;;;4996080;28;20162;-59
2022/06/15 07:03:20;;;;;;;11.48;2.28;;;34.30;64.00;;;;;;4996272;28;20037;-59
2022/06/15 07:05:46;;;;;;;4.63;2.33;;;34.20;65.90;;;;;;4996032;28;20026;-60
2022/06/15 07:08:13;;;;;;;4.65;2.05;;;34.50;62.60;;;;;;4996128;28;20031;-60
2022/06/15 07:10:40;;;;;;;9.23;1.80;;;35.20;64.70;;;;;;4995963;28;20076;-59
2022/06/15 07:13:05;;;;;;;5.05;2.50;;;35.70;62.00;;;;;;4994942;28;20026;-59
2022/06/15 07:15:31;;;;;;;6.10;2.17;;;35.10;59.80;;;;;;4995801;28;20035;-59
2022/06/15 07:18:01;;;;;;;7.35;2.10;;;35.20;62.10;;;;;;4994569;28;20030;-60
2022/06/15 07:20:28;;;;;;;4.10;2.03;;;35.80;59.40;;;;;;4995610;28;20036;-59
2022/06/15 07:22:54;;;;;;;6.50;2.42;;;36.40;59.90;;;;;;4995839;28;20037;-57
2022/06/15 07:25:20;;;;;;;8.55;2.80;;;36.70;57.50;;;;;;4994893;28;20055;-60
2022/06/15 07:27:47;;;;;;;7.28;2.40;;;36.10;57.30;;;;;;4995607;28;20026;-60
2022/06/15 07:30:18;;;;;;;5.68;2.03;;;35.60;57.50;;;;;;4995721;28;20363;-57
2022/06/15 07:32:44;;;;;;;5.53;2.20;;;36.10;57.80;;;;;;4995827;28;20381;-59
2022/06/15 07:35:23;;;;;;;7.40;2.60;;;36.10;57.30;;;;;;4995432;28;20046;-59
2022/06/15 07:37:50;;;;;;;9.02;2.05;;;35.60;57.50;;;;;;4994470;28;20440;-60
2022/06/15 07:40:17;;;;;;;7.93;2.45;;;36.50;59.00;;;;;;4995407;28;20026;-56
2022/06/15 07:42:45;;;;;;;3.97;2.00;;;36.60;55.70;;;;;;4995173;28;20030;-59
2022/06/15 07:45:11;;;;;;;11.13;2.58;;;36.50;57.80;;;;;;4994923;28;20022;-55
2022/06/15 07:50:21;;;;;;;6.97;1.92;;;37.00;55.80;;;;;;4995781;28;20029;-55
2022/06/15 07:52:49;;;;;;;5.47;2.25;;;36.70;54.60;;;;;;4994191;28;20030;-59
2022/06/15 07:55:20;;;;;;;7.15;2.15;;;36.60;54.30;;;;;;4993995;28;20029;-60
2022/06/15 07:57:46;;;;;;;6.75;2.08;;;37.00;54.00;;;;;;4994763;28;20031;-60
2022/06/15 08:00:13;;;;;;;10.95;2.35;;;36.90;54.20;;;;;;4993807;28;20030;-59
2022/06/15 08:02:40;;;;;;;4.18;2.10;;;37.10;54.40;;;;;;4993503;28;20400;-57
2022/06/15 08:05:06;;;;;;;6.35;1.92;;;36.60;54.30;;;;;;4994989;28;20030;-56
2022/06/15 08:07:32;;;;;;;4.72;2.03;;;36.70;55.00;;;;;;4995075;28;20032;-58
2022/06/15 08:09:57;;;;;;;3.65;2.00;;;36.90;54.50;;;;;;4994324;28;20030;-57
2022/06/15 08:12:23;;;;;;;4.32;1.65;;;38.00;54.70;;;;;;4993395;28;20026;-57
2022/06/15 08:14:55;;;;;;;5.85;1.83;;;37.60;53.50;;;;;;4994531;28;20142;-57
2022/06/15 08:17:27;;;;;;;6.85;2.00;;;37.30;53.50;;;;;;4993351;28;20081;-58
2022/06/15 08:20:00;;;;;;;5.72;2.00;;;37.60;53.80;;;;;;4993364;28;20022;-58
2022/06/15 08:22:27;;;;;;;5.82;2.22;;;38.10;53.70;;;;;;4994216;28;20044;-58
2022/06/15 08:24:54;;;;;;;7.18;2.17;;;39.30;52.30;;;;;;4993534;28;20029;-57
2022/06/15 08:27:22;;;;;;;3.10;1.80;;;39.80;52.00;;;;;;4995084;28;20044;-57
2022/06/15 08:29:50;;;;;;;3.10;1.90;;;40.60;50.20;;;;;;4994066;28;20046;-58
2022/06/15 08:32:17;;;;;;;9.45;2.40;;;40.30;51.10;;;;;;4994475;28;20026;-58
2022/06/15 08:34:44;;;;;;;5.03;1.73;;;39.90;50.20;;;;;;4994382;28;20034;-58
2022/06/15 08:37:13;;;;;;;4.95;1.65;;;39.30;50.70;;;;;;4994352;28;20559;-58
2022/06/15 08:39:38;;;;;;;4.40;2.15;;;39.50;50.90;;;;;;4993533;28;20098;-58
2022/06/15 08:42:31;;;;;;;7.38;2.20;;;41.10;51.10;;;;;;4992959;28;20120;-56
2022/06/15 08:45:03;;;;;;;4.85;2.38;;;41.80;48.10;;;;;;4994006;28;20050;-58
2022/06/15 08:47:28;;;;;;;6.43;2.20;;;41.80;49.30;;;;;;4992860;28;20057;-55
2022/06/15 08:50:12;;;;;;;5.45;2.00;;;40.80;48.00;;;;;;4994213;28;20023;-60
2022/06/15 08:52:51;;;;;;;5.05;2.40;;;41.30;49.70;;;;;;4992899;28;20057;-59
2022/06/15 08:55:32;;;;;;;5.38;2.28;;;40.10;49.00;;;;;;4992924;28;20121;-61
2022/06/15 08:58:05;;;;;;;7.10;1.90;;;40.50;48.10;;;;;;4994417;28;20408;-58
2022/06/15 09:00:37;;;;;;;9.18;2.40;;;41.70;49.30;;;;;;4994067;28;20030;-61
2022/06/15 09:03:50;;;;;;;6.78;2.17;;;42.60;48.10;;;;;;4993911;28;20532;-59
2022/06/15 09:06:16;;;;;;;5.35;1.67;;;42.10;46.90;;;;;;4989673;28;20030;-59
2022/06/15 09:08:52;;;;;;;7.60;2.38;;;41.80;47.50;;;;;;4994312;28;20088;-59
2022/06/15 09:11:46;;;;;;;3.75;2.20;;;42.40;46.00;;;;;;4993995;28;20034;-59
2022/06/15 09:14:37;;;;;;;3.20;2.00;;;40.20;47.90;;;;;;4993012;28;20034;-56
2022/06/15 09:17:14;;;;;;;3.60;1.90;;;39.80;49.30;;;;;;4994498;28;20026;-58
2022/06/15 09:20:01;;;;;;;7.82;2.20;;;41.50;48.70;;;;;;4992750;28;20023;-59
2022/06/15 09:22:34;;;;;;;9.45;2.72;;;42.80;46.40;;;;;;4997525;28;20027;-61
2022/06/15 09:25:08;;;;;;;5.95;2.50;;;43.40;45.50;;;;;;4996804;28;20045;-60
2022/06/15 09:27:53;;;;;;;3.53;2.00;;;43.60;44.80;;;;;;4996620;28;20022;-58
2022/06/15 09:30:27;;;;;;;6.55;2.40;;;41.40;44.80;;;;;;4996593;28;20109;-61
2022/06/15 09:33:09;;;;;;;5.55;2.03;;;40.80;46.80;;;;;;4997996;28;20031;-58
2022/06/15 09:35:38;;;;;;;3.95;2.03;;;41.20;45.70;;;;;;4997762;28;20106;-59
2022/06/15 09:38:06;;;;;;;;;;;41.00;45.80;;;;;;4996449;28;20061;-59
2022/06/15 09:41:11;;;;;;;5.95;2.45;;;40.80;45.80;;;;;;4997036;28;20360;-59
2022/06/15 09:44:03;;;;;;;4.05;2.03;;;40.90;46.00;;;;;;4997601;28;20034;-59
2022/06/15 09:46:50;;;;;;;4.25;2.08;;;41.60;46.30;;;;;;4997546;28;20026;-58
2022/06/15 09:49:31;;;;;;;5.60;2.20;;;42.80;45.70;;;;;;4996573;28;20039;-60
2022/06/15 09:52:22;;;;;;;10.10;2.50;;;43.00;45.80;;;;;;4997409;28;20469;-59
2022/06/15 09:55:14;;;;;;;3.75;2.05;;;43.60;45.40;;;;;;4996030;28;20018;-56
2022/06/15 09:57:41;;;;;;;5.15;2.17;;;44.20;45.20;;;;;;4997398;28;20022;-58
2022/06/15 10:00:10;;;;;;;3.25;2.40;;;43.40;43.20;;;;;;4996894;28;20026;-56
2022/06/15 10:02:37;;;;;;;;;;;43.70;43.80;;;;;;4996330;28;20030;-56
2022/06/15 10:05:06;;;;;;;3.00;1.98;;;43.90;43.30;;;;;;4995971;28;19910;-60
2022/06/15 10:07:37;;;;;;;3.28;2.40;;;44.30;43.80;;;;;;4996963;28;20027;-56
2022/06/15 10:10:21;;;;;;;5.80;2.10;;;43.60;42.30;;;;;;4997359;28;20057;-57
2022/06/15 10:13:02;;;;;;;5.25;2.22;;;42.20;44.40;;;;;;4996904;28;20447;-54
2022/06/15 10:15:43;;;;;;;7.93;2.10;;;42.10;43.50;;;;;;4997540;28;20065;-59
2022/06/15 10:18:23;;;;;;;6.63;2.50;;;41.90;44.80;;;;;;4995739;28;20030;-55
2022/06/15 10:20:59;;;;;;;2.63;2.30;;;42.00;42.40;;;;;;4995720;28;20033;-55
2022/06/15 10:23:34;;;;;;;4.78;2.22;;;40.90;42.80;;;;;;4995418;28;20069;-58
2022/06/15 10:26:01;;;;;;;6.57;2.47;;;39.70;43.90;;;;;;4997080;28;20046;-59
2022/06/15 10:28:34;;;;;;;3.83;2.13;;;38.30;43.60;;;;;;4995450;28;20023;-59
2022/06/15 10:31:04;;;;;;;4.30;2.35;;;37.40;45.40;;;;;;4995503;28;20031;-57
2022/06/15 10:33:49;;;;;;;3.05;1.95;;;37.00;48.50;;;;;;4994700;28;20027;-58
2022/06/15 10:36:27;;;;;;;4.70;1.98;;;37.20;47.20;;;;;;4995379;28;20053;-60
2022/06/15 10:39:05;;;;;;;2.88;2.10;;;37.00;46.60;;;;;;4995361;28;20050;-58
2022/06/15 10:41:46;;;;;;;3.13;1.92;;;37.10;47.90;;;;;;4996727;28;20023;-58
2022/06/15 10:44:32;;;;;;;4.50;2.15;;;36.90;49.00;;;;;;4995599;28;20054;-59
2022/06/15 10:47:03;;;;;;;5.95;2.13;;;35.90;48.40;;;;;;4996712;28;20050;-59
2022/06/15 10:49:30;;;;;;;;;;;35.50;49.10;;;;;;4995474;28;20109;-58
2022/06/15 10:51:56;;;;;;;2.75;2.20;;;35.00;50.10;;;;;;4996275;28;19948;-59
2022/06/15 11:02:06;;;;;;;2.88;2.33;;;34.90;51.50;;;;;;4996101;28;20054;-60
2022/06/15 11:03:14;;;;;;;4.05;1.80;;;33.40;50.20;;;;;;4995756;28;19936;-61
2022/06/15 11:05:40;;;;;;;4.93;1.90;;;32.80;50.50;;;;;;4996015;28;20030;-59
2022/06/15 11:08:20;;;;;;;2.72;1.88;;;32.70;51.10;;;;;;4994816;28;20125;-62
2022/06/15 11:10:49;;;;;;;4.45;1.77;;;32.50;51.30;;;;;;4996120;28;20057;-60
2022/06/15 11:13:43;;;;;;;3.45;1.77;;;32.30;51.10;;;;;;4996145;28;20023;-60
2022/06/15 11:19:22;;;;;;;6.53;2.72;;;32.20;53.70;;;;;;4996296;28;20097;-62
2022/06/15 11:22:03;;;;;;;2.67;1.80;;;31.80;53.20;;;;;;4995680;28;20065;-61
2022/06/15 11:24:42;;;;;;;4.90;2.40;;;31.70;54.10;;;;;;4994430;28;20034;-62
2022/06/15 11:27:36;;;;;;;2.75;2.00;;;31.50;54.40;;;;;;4994378;28;20077;-61
2022/06/15 11:30:27;;;;;;;3.42;2.10;;;31.40;54.40;;;;;;4994393;28;20018;-62
2022/06/15 11:33:20;;;;;;;4.32;2.35;;;31.40;54.40;;;;;;4995487;28;20034;-63
2022/06/15 11:36:05;;;;;;;3.92;1.98;;;31.10;53.10;;;;;;4995742;28;20527;-61
2022/06/15 11:38:33;;;;;;;5.30;2.13;;;31.00;54.10;;;;;;4995740;28;20473;-59
2022/06/15 11:41:25;;;;;;;3.13;2.08;;;30.70;55.00;;;;;;4994123;28;20034;-62
2022/06/15 11:43:54;;;;;;;6.50;2.50;;;30.80;52.90;;;;;;4993299;28;20056;-61
2022/06/15 11:46:19;;;;;;;6.65;2.35;;;30.50;53.30;;;;;;4993957;28;20033;-60
2022/06/15 11:48:45;;;;;;;4.53;2.63;;;30.40;54.90;;;;;;4995209;28;20031;-57
2022/06/15 11:51:32;;;;;;;5.60;2.60;;;30.40;53.40;;;;;;4993875;28;20018;-57
2022/06/15 11:54:20;;;;;;;4.10;2.20;;;30.40;54.20;;;;;;4995102;28;20038;-57
2022/06/15 11:57:03;;;;;;;2.58;2.15;;;30.30;54.50;;;;;;4994711;28;20033;-58
2022/06/15 11:59:50;;;;;;;2.90;2.13;;;30.30;54.90;;;;;;4993762;28;20023;-54
2022/06/15 12:02:27;;;;;;;3.95;2.08;;;30.30;55.40;;;;;;4994125;28;20424;-55
2022/06/15 12:05:19;;;;;;;2.70;2.30;;;30.30;54.80;;;;;;4993610;28;20025;-57
2022/06/15 12:08:13;;;;;;;4.53;2.50;;;30.20;54.60;;;;;;4995046;28;20030;-56
2022/06/15 12:10:58;;;;;;;3.97;2.15;;;30.30;54.90;;;;;;4994381;28;20026;-54
2022/06/15 12:13:49;;;;;;;4.95;2.40;;;30.20;54.70;;;;;;4995239;28;20037;-54
2022/06/15 12:16:47;;;;;;;3.10;2.13;;;29.90;54.50;;;;;;4993723;28;20164;-60
2022/06/15 12:19:27;;;;;;;2.10;1.90;;;29.90;54.10;;;;;;4993412;28;20033;-56
2022/06/15 12:22:07;;;;;;;3.03;2.20;;;29.90;56.30;;;;;;4993548;28;20061;-59
2022/06/15 12:24:37;;;;;;;6.38;2.30;;;29.90;55.80;;;;;;4993281;28;20023;-57
2022/06/15 12:27:24;;;;;;;6.38;2.15;;;29.90;55.80;;;;;;4994541;28;20022;-59
2022/06/15 12:30:04;;;;;;;6.18;2.17;;;29.90;55.50;;;;;;4994748;28;20049;-56
2022/06/15 12:32:36;;;;;;;2.33;1.90;;;29.90;55.40;;;;;;4994026;28;20096;-59
2022/06/15 12:35:15;;;;;;;3.22;2.40;;;29.90;55.90;;;;;;4993049;28;20038;-60
2022/06/15 12:37:59;;;;;;;9.00;2.70;;;29.90;56.20;;;;;;4992963;28;20038;-58
2022/06/15 12:40:51;;;;;;;5.07;2.22;;;29.90;56.80;;;;;;4993063;28;20025;-59
2022/06/15 12:43:32;;;;;;;5.35;2.30;;;29.90;56.10;;;;;;4993553;28;20064;-59
2022/06/15 12:46:13;;;;;;;4.43;2.38;;;29.90;56.40;;;;;;4994584;28;20021;-58
2022/06/15 12:49:16;;;;;;;6.07;2.42;;;29.90;56.50;;;;;;4994505;28;20034;-55
2022/06/15 12:51:59;;;;;;;3.47;2.10;;;29.90;55.90;;;;;;4993037;28;20026;-56
2022/06/15 12:54:34;;;;;;;4.20;2.40;;;29.90;56.50;;;;;;4994039;28;20041;-58
2022/06/15 12:57:11;;;;;;;4.05;2.20;;;29.90;55.20;;;;;;4992608;28;20026;-55
2022/06/15 12:59:46;;;;;;;3.22;2.10;;;29.90;54.70;;;;;;4992831;28;20393;-58
2022/06/15 13:02:38;;;;;;;2.50;1.95;;;29.90;54.90;;;;;;4992651;28;20026;-56
2022/06/15 13:05:04;;;;;;;5.43;2.58;;;29.60;55.40;;;;;;4994249;28;20026;-58
2022/06/15 13:07:32;;;;;;;6.75;2.47;;;29.60;56.30;;;;;;4993994;28;20022;-56
2022/06/15 13:10:07;;;;;;;6.93;2.30;;;29.50;55.60;;;;;;4994200;28;20105;-57
2022/06/15 13:12:37;;;;;;;3.72;2.72;;;29.40;55.50;;;;;;4993193;28;20023;-56
2022/06/15 13:15:04;;;;;;;4.72;2.28;;;29.30;56.00;;;;;;4994470;28;20058;-53
2022/06/15 13:18:07;;;;;;;3.83;2.30;;;29.20;56.60;;;;;;4993769;28;20037;-54
2022/06/15 13:21:03;;;;;;;4.55;2.10;;;29.10;57.00;;;;;;4992973;28;20031;-51
2022/06/15 13:23:32;;;;;;;3.08;2.20;;;29.10;58.20;;;;;;4993646;28;20105;-53
2022/06/15 13:26:20;;;;;;;4.68;2.33;;;29.20;58.70;;;;;;4992515;28;20463;-55
2022/06/15 13:29:04;;;;;;;4.00;2.13;;;29.30;58.60;;;;;;4994125;28;20026;-52